createdAt,value
2023-02-13T00:01:52.585Z,0.40
2023-02-13T00:05:52.692Z,0.40
2023-02-13T00:09:55.456Z,0.40
2023-02-13T00:13:55.622Z,0.50
2023-02-13T00:17:55.754Z,0.50
2023-02-13T00:21:55.856Z,0.60
2023-02-13T00:25:58.694Z,0.70
2023-02-13T00:29:58.884Z,0.70
2023-02-13T00:34:01.887Z,0.60
2023-02-13T00:38:02.003Z,0.70
2023-02-13T00:42:04.733Z,0.70
2023-02-13T00:46:05.124Z,0.70
2023-02-13T00:50:05.469Z,0.70
2023-02-13T00:54:05.620Z,0.70
2023-02-13T00:58:08.890Z,0.70
2023-02-13T01:02:09.141Z,0.70
2023-02-13T01:06:10.424Z,0.70
2023-02-13T01:10:11.283Z,0.80
2023-02-13T01:14:14.330Z,0.80
2023-02-13T01:18:17.130Z,0.90
2023-02-13T01:22:17.381Z,0.90
2023-02-13T01:26:22.327Z,0.90
2023-02-13T01:30:26.247Z,0.90
2023-02-13T01:34:28.916Z,1.00
2023-02-13T01:38:29.199Z,1.00
2023-02-13T01:42:32.372Z,1.00
2023-02-13T01:46:43.452Z,1.00
2023-02-13T01:50:51.448Z,0.90
2023-02-13T01:54:51.689Z,0.90
2023-02-13T01:58:57.042Z,1.00
2023-02-13T02:03:12.102Z,0.90
2023-02-13T02:07:18.755Z,0.80
2023-02-13T02:11:29.852Z,0.80
2023-02-13T02:15:30.220Z,0.60
2023-02-13T02:19:47.602Z,0.60
2023-02-13T02:24:30.980Z,0.60
2023-02-13T02:29:06.155Z,0.70
2023-02-13T02:33:36.585Z,0.70
2023-02-13T02:38:05.119Z,0.70
2023-02-13T02:42:21.918Z,0.70
2023-02-13T02:46:35.664Z,0.70
2023-02-13T02:50:46.805Z,0.70
2023-02-13T02:55:06.536Z,0.70
2023-02-13T02:59:29.715Z,0.70
2023-02-13T03:03:46.530Z,0.70
2023-02-13T03:07:50.123Z,0.70
2023-02-13T03:12:07.244Z,0.70
2023-02-13T03:16:21.569Z,0.60
2023-02-13T03:20:53.968Z,0.50
2023-02-13T03:25:13.741Z,0.50
2023-02-13T03:29:38.116Z,0.50
2023-02-13T03:33:59.861Z,0.60
2023-02-13T03:38:10.918Z,0.50
2023-02-13T03:42:24.295Z,0.50
2023-02-13T03:46:27.480Z,0.50
2023-02-13T03:50:30.839Z,0.50
2023-02-13T03:54:57.180Z,0.50
2023-02-13T03:59:18.846Z,0.50
2023-02-13T04:03:27.647Z,0.50
2023-02-13T04:07:35.634Z,0.40
2023-02-13T04:11:42.207Z,0.40
2023-02-13T04:15:55.791Z,0.50
2023-02-13T04:19:56.481Z,0.50
2023-02-13T04:23:56.673Z,0.50
2023-02-13T04:27:56.827Z,0.50
2023-02-13T04:31:59.783Z,0.40
2023-02-13T04:35:59.894Z,0.40
2023-02-13T04:40:00.065Z,0.40
2023-02-13T04:44:00.710Z,0.40
2023-02-13T04:48:03.607Z,0.40
2023-02-13T04:52:03.821Z,0.30
2023-02-13T04:56:03.917Z,0.30
2023-02-13T05:00:04.999Z,0.30
2023-02-13T05:04:08.128Z,0.30
2023-02-13T05:08:12.299Z,0.30
2023-02-13T05:12:12.399Z,0.30
2023-02-13T05:16:14.935Z,0.40
2023-02-13T05:20:18.951Z,0.40
2023-02-13T05:24:20.490Z,0.40
2023-02-13T05:28:33.417Z,0.30
2023-02-13T05:32:33.577Z,0.40
2023-02-13T05:36:36.409Z,0.40
2023-02-13T05:40:39.736Z,0.30
2023-02-13T05:44:40.205Z,0.30
2023-02-13T05:48:41.369Z,0.30
2023-02-13T05:52:44.134Z,0.30
2023-02-13T05:56:44.605Z,0.30
2023-02-13T06:00:45.048Z,0.30
2023-02-13T06:04:45.131Z,0.40
2023-02-13T06:08:48.210Z,0.40
2023-02-13T06:12:48.334Z,0.50
2023-02-13T06:16:48.496Z,0.50
2023-02-13T06:20:48.838Z,0.50
2023-02-13T06:24:51.592Z,0.50
2023-02-13T06:28:51.787Z,0.60
2023-02-13T06:32:52.672Z,0.60
2023-02-13T06:36:53.329Z,0.60
2023-02-13T06:40:56.661Z,0.70
2023-02-13T06:44:57.112Z,0.80
2023-02-13T06:48:57.303Z,0.80
2023-02-13T06:52:58.474Z,0.80
2023-02-13T06:57:01.219Z,0.90
2023-02-13T07:01:01.465Z,0.90
2023-02-13T07:05:02.517Z,1.00
2023-02-13T07:09:03.851Z,1.00
2023-02-13T07:13:14.305Z,1.00
2023-02-13T07:17:14.681Z,1.10
2023-02-13T07:21:16.026Z,1.20
2023-02-13T07:25:16.212Z,1.30
2023-02-13T07:29:19.084Z,1.40
2023-02-13T07:33:19.556Z,1.40
2023-02-13T07:37:19.778Z,1.50
2023-02-13T07:41:51.268Z,1.60
2023-02-13T07:56:21.465Z,2.10
2023-02-13T08:00:25.224Z,2.20
2023-02-13T08:04:26.491Z,2.40
2023-02-13T08:08:27.811Z,2.50
2023-02-13T08:12:31.132Z,2.60
2023-02-13T08:16:31.681Z,2.70
2023-02-13T08:20:32.260Z,2.80
2023-02-13T08:24:33.020Z,2.90
2023-02-13T08:28:36.506Z,2.90
2023-02-13T08:32:52.875Z,3.00
2023-02-13T08:36:53.995Z,3.30
2023-02-13T08:40:54.654Z,3.40
2023-02-13T08:44:59.666Z,3.60
2023-02-13T08:48:59.927Z,3.60
2023-02-13T08:53:01.761Z,3.60
2023-02-13T08:57:02.077Z,3.70
2023-02-13T09:01:09.583Z,3.80
2023-02-13T09:05:11.077Z,4.10
2023-02-13T09:09:12.315Z,4.20
2023-02-13T09:13:14.539Z,4.40
2023-02-13T09:17:19.851Z,4.70
2023-02-13T09:21:23.776Z,4.80
2023-02-13T09:25:24.018Z,5.00
2023-02-13T09:29:30.526Z,5.20
2023-02-13T09:33:35.105Z,5.40
2023-02-13T09:37:35.710Z,5.70
2023-02-13T09:41:41.524Z,5.90
2023-02-13T09:45:44.371Z,6.20
2023-02-13T09:49:55.832Z,6.30
2023-02-13T09:54:02.645Z,6.60
2023-02-13T09:58:12.745Z,6.90
2023-02-13T10:02:51.030Z,7.10
2023-02-13T10:07:09.018Z,7.60
2023-02-13T10:11:33.947Z,7.90
2023-02-13T10:15:46.838Z,7.60
2023-02-13T10:19:58.817Z,7.70
2023-02-13T10:24:08.858Z,7.80
2023-02-13T10:28:21.840Z,8.00
2023-02-13T10:32:30.633Z,8.60
2023-02-13T10:36:36.900Z,8.80
2023-02-13T10:40:55.284Z,8.80
2023-02-13T10:45:23.086Z,8.90
2023-02-13T10:49:55.974Z,8.90
2023-02-13T10:54:21.609Z,8.80
2023-02-13T10:58:37.128Z,9.20
2023-02-13T11:02:38.948Z,9.10
2023-02-13T11:06:45.396Z,9.50
2023-02-13T11:10:45.978Z,9.80
2023-02-13T11:14:59.346Z,10.10
2023-02-13T11:19:00.333Z,10.30
2023-02-13T11:23:22.262Z,10.40
2023-02-13T11:27:29.993Z,10.70
2023-02-13T11:31:35.868Z,10.50
2023-02-13T11:35:39.820Z,10.60
2023-02-13T11:39:40.488Z,10.30
2023-02-13T11:43:49.303Z,10.40
2023-02-13T11:47:53.205Z,10.40
2023-02-13T11:51:57.552Z,10.40
2023-02-13T11:56:18.291Z,10.30
2023-02-13T12:00:38.065Z,10.10
2023-02-13T12:04:43.052Z,10.30
2023-02-13T12:08:48.800Z,10.30
2023-02-13T12:12:58.086Z,10.60
2023-02-13T12:17:04.295Z,11.00
2023-02-13T12:21:27.478Z,11.00
2023-02-13T12:26:07.343Z,11.10
2023-02-13T12:30:41.007Z,11.90
2023-02-13T12:35:22.333Z,13.50
2023-02-13T12:39:34.225Z,15.20
2023-02-13T12:44:24.929Z,16.50
2023-02-13T12:48:42.042Z,15.70
2023-02-13T12:52:59.342Z,14.40
2023-02-13T12:57:24.357Z,13.50
2023-02-13T13:02:09.861Z,12.80
2023-02-13T13:06:39.797Z,12.10
2023-02-13T13:10:57.224Z,12.60
2023-02-13T13:15:13.025Z,13.00
2023-02-13T13:19:29.268Z,13.90
2023-02-13T13:23:39.506Z,13.90
2023-02-13T13:27:46.938Z,13.30
2023-02-13T13:31:57.101Z,13.60
2023-02-13T13:36:10.853Z,13.30
2023-02-13T13:40:33.866Z,13.30
2023-02-13T13:45:08.203Z,14.40
2023-02-13T13:49:37.299Z,14.80
2023-02-13T13:53:39.307Z,15.10
2023-02-13T13:58:05.029Z,14.90
2023-02-13T14:02:49.729Z,15.10
2023-02-13T14:07:27.491Z,14.30
2023-02-13T14:11:42.472Z,14.30
2023-02-13T14:15:56.251Z,13.90
2023-02-13T14:19:58.683Z,13.20
2023-02-13T14:24:04.166Z,13.10
2023-02-13T14:28:08.557Z,13.30
2023-02-13T14:32:30.060Z,13.70
2023-02-13T14:36:34.027Z,13.50
2023-02-13T14:40:51.336Z,13.40
2023-02-13T14:44:59.702Z,13.90
2023-02-13T14:49:06.681Z,13.60
2023-02-13T14:53:22.350Z,13.00
2023-02-13T14:57:32.013Z,12.70
2023-02-13T15:01:36.556Z,13.10
2023-02-13T15:05:40.425Z,13.30
2023-02-13T15:09:44.345Z,13.10
2023-02-13T15:13:47.612Z,12.80
2023-02-13T15:17:48.170Z,12.50
2023-02-13T15:21:57.326Z,12.30
2023-02-13T15:26:04.454Z,12.40
2023-02-13T15:30:24.136Z,12.40
2023-02-13T15:34:29.054Z,11.90
2023-02-13T15:38:32.392Z,11.70
2023-02-13T15:42:33.678Z,11.40
2023-02-13T15:46:40.532Z,11.10
2023-02-13T15:50:45.661Z,10.60
2023-02-13T15:54:54.341Z,10.30
2023-02-13T15:58:56.330Z,10.00
2023-02-13T16:03:03.450Z,9.60
2023-02-13T16:07:04.888Z,9.40
2023-02-13T16:11:28.902Z,9.20
2023-02-13T16:15:34.565Z,9.00
2023-02-13T16:20:01.974Z,8.50
2023-02-13T16:24:06.993Z,8.10
2023-02-13T16:28:20.464Z,7.70
2023-02-13T16:32:31.572Z,7.30
2023-02-13T16:36:39.625Z,6.90
2023-02-13T16:40:44.378Z,6.50
2023-02-13T16:44:44.651Z,6.20
2023-02-13T16:48:45.714Z,6.00
2023-02-13T16:52:49.148Z,5.70
2023-02-13T16:56:53.241Z,5.50
2023-02-13T17:00:55.468Z,5.30
2023-02-13T17:04:59.967Z,5.10
2023-02-13T17:09:03.351Z,4.90
2023-02-13T17:13:11.630Z,4.80
2023-02-13T17:17:17.008Z,4.70
2023-02-13T17:21:17.280Z,4.60
2023-02-13T17:25:25.557Z,4.40
2023-02-13T17:29:26.323Z,4.30
2023-02-13T17:33:29.889Z,4.20
2023-02-13T17:37:32.972Z,4.20
2023-02-13T17:41:38.347Z,4.00
2023-02-13T17:45:39.283Z,3.90
2023-02-13T17:49:40.436Z,3.70
2023-02-13T17:53:40.887Z,3.50
2023-02-13T17:57:43.805Z,3.40
2023-02-13T18:01:44.493Z,3.30
2023-02-13T18:05:45.883Z,3.20
2023-02-13T18:09:47.989Z,3.00
2023-02-13T18:13:50.891Z,3.10
2023-02-13T18:17:52.343Z,3.00
2023-02-13T18:21:53.894Z,3.10
2023-02-13T18:25:54.940Z,3.00
2023-02-13T18:29:59.463Z,3.00
2023-02-13T18:34:01.140Z,3.00
2023-02-13T18:38:03.757Z,2.90
2023-02-13T18:42:04.326Z,2.70
2023-02-13T18:46:08.747Z,2.50
2023-02-13T18:50:13.731Z,2.40
2023-02-13T18:54:14.500Z,2.30
2023-02-13T18:58:15.128Z,2.20
2023-02-13T19:02:18.137Z,2.10
2023-02-13T19:06:22.140Z,2.00
2023-02-13T19:10:22.734Z,1.90
2023-02-13T19:14:25.177Z,1.70
2023-02-13T19:18:29.321Z,1.50
2023-02-13T19:22:30.420Z,1.30
2023-02-13T19:26:31.462Z,1.20
2023-02-13T19:30:32.181Z,1.00
2023-02-13T19:34:35.518Z,0.90
2023-02-13T19:38:35.905Z,0.80
2023-02-13T19:42:36.913Z,0.80
2023-02-13T19:46:39.161Z,0.60
2023-02-13T19:50:42.466Z,0.60
2023-02-13T19:54:45.145Z,0.60
2023-02-13T19:58:46.517Z,0.50
2023-02-13T20:02:47.304Z,0.40
2023-02-13T20:06:50.789Z,0.30
2023-02-13T20:10:50.999Z,0.20
2023-02-13T20:14:51.544Z,0.20
2023-02-13T20:18:52.839Z,0.10
2023-02-13T20:22:56.021Z,0.10
2023-02-13T20:26:58.986Z,0.00
2023-02-13T20:31:00.779Z,0.00
2023-02-13T20:35:01.525Z,-0.10
2023-02-13T20:39:08.326Z,-0.10
2023-02-13T20:43:08.929Z,-0.20
2023-02-13T20:47:11.113Z,-0.30
2023-02-13T20:51:15.069Z,-0.40
2023-02-13T20:55:19.730Z,-0.40
2023-02-13T20:59:20.968Z,-0.50
2023-02-13T21:03:21.342Z,-0.60
2023-02-13T21:07:21.715Z,-0.60
2023-02-13T21:11:26.496Z,-0.60
2023-02-13T21:15:26.909Z,-0.70
2023-02-13T21:19:27.812Z,-0.70
2023-02-13T21:23:28.240Z,-0.70
2023-02-13T21:27:32.393Z,-0.80
2023-02-13T21:31:36.960Z,-0.80
2023-02-13T21:35:38.474Z,-0.90
2023-02-13T21:39:40.658Z,-0.90
2023-02-13T21:43:46.855Z,-1.00
2023-02-13T21:47:47.310Z,-1.10
2023-02-13T21:51:49.524Z,-1.20
2023-02-13T21:55:49.944Z,-1.20
2023-02-13T21:59:53.133Z,-1.30
2023-02-13T22:03:56.411Z,-1.30
2023-02-13T22:08:10.804Z,-1.40
2023-02-13T22:12:11.332Z,-1.30
2023-02-13T22:16:18.164Z,-1.30
2023-02-13T22:20:19.083Z,-1.30
2023-02-13T22:24:19.600Z,-1.30
2023-02-13T22:28:20.280Z,-1.30
2023-02-13T22:32:23.352Z,-1.40
2023-02-13T22:36:24.401Z,-1.40
2023-02-13T22:40:28.026Z,-1.50
2023-02-13T22:44:28.296Z,-1.60
2023-02-13T22:48:31.388Z,-1.60
2023-02-13T22:52:32.057Z,-1.70
2023-02-13T22:56:33.952Z,-1.70
2023-02-13T23:00:34.376Z,-1.80
2023-02-13T23:04:37.557Z,-1.80
2023-02-13T23:08:38.156Z,-1.80
2023-02-13T23:12:45.573Z,-1.80
2023-02-13T23:16:59.391Z,-1.80
2023-02-13T23:21:09.323Z,-1.70
2023-02-13T23:25:10.527Z,-1.50
2023-02-13T23:29:10.842Z,-1.30
2023-02-13T23:33:11.186Z,-1.10
2023-02-13T23:37:15.247Z,-0.90
2023-02-13T23:41:15.902Z,-0.70
2023-02-13T23:45:16.171Z,-0.60
2023-02-13T23:49:16.580Z,-0.40
2023-02-13T23:53:19.614Z,-0.30
2023-02-13T23:57:20.146Z,-0.20
